Time;durP1;ratioP1;P1;durP2;ratioP2;P2;SDS_P1;SDS_P2;PMS_P1;PMS_P2;Temp;Humidity;BMP_temperature;BMP_pressure;BME280_temperature;BME280_humidity;BME280_pressure;Samples;Min_cycle;Max_cycle;Signal;HPM_P1;HPM_P2
2024/01/01 00:02:20;;;;;;;3.47;1.23;;;9.40;99.90;;;;;;5037649;28;20036;-19
2024/01/01 00:04:46;;;;;;;4.80;1.35;;;9.30;99.90;;;;;;5052768;28;20027;-19
2024/01/01 00:07:12;;;;;;;4.73;1.20;;;9.30;99.90;;;;;;5053700;28;20028;-19
2024/01/01 00:09:37;;;;;;;4.47;1.30;;;9.30;99.90;;;;;;5056026;28;20029;-18
2024/01/01 00:12:03;;;;;;;6.07;1.20;;;9.20;99.90;;;;;;5028891;28;20029;-19
2024/01/01 00:14:29;;;;;;;4.53;1.10;;;9.20;99.90;;;;;;5036073;28;20067;-19
2024/01/01 00:16:55;;;;;;;6.90;1.13;;;9.10;99.90;;;;;;5052796;28;20491;-18
2024/01/01 00:19:21;;;;;;;6.83;1.37;;;9.20;99.90;;;;;;5050655;28;20328;-18
2024/01/01 00:21:46;;;;;;;4.53;1.20;;;9.10;99.90;;;;;;5038404;28;20460;-21
2024/01/01 00:24:12;;;;;;;4.83;1.40;;;9.10;99.90;;;;;;5052566;28;20288;-20
2024/01/01 00:26:38;;;;;;;4.50;0.90;;;9.10;99.90;;;;;;5034818;28;20055;-18
2024/01/01 00:29:03;;;;;;;6.87;1.10;;;9.10;99.90;;;;;;5052939;28;20089;-18
2024/01/01 00:31:31;;;;;;;6.10;1.40;;;9.10;99.90;;;;;;5035057;28;20034;-18
2024/01/01 00:33:57;;;;;;;3.47;1.05;;;9.00;99.90;;;;;;5051207;28;20226;-18
2024/01/01 00:36:22;;;;;;;4.72;1.10;;;9.00;99.90;;;;;;5036006;28;20024;-18
2024/01/01 00:38:50;;;;;;;7.47;1.50;;;9.00;99.90;;;;;;5051048;28;20115;-18
2024/01/01 00:41:16;;;;;;;5.57;1.60;;;9.10;99.90;;;;;;5057301;28;20035;-19
2024/01/01 00:43:43;;;;;;;6.38;1.42;;;9.00;99.90;;;;;;5055671;28;20075;-19
2024/01/01 00:46:09;;;;;;;7.15;1.58;;;9.00;99.90;;;;;;5053153;28;20029;-18
2024/01/01 00:48:35;;;;;;;7.90;1.60;;;9.00;99.90;;;;;;5055902;28;20020;-19
2024/01/01 00:51:01;;;;;;;5.67;1.30;;;9.00;99.90;;;;;;5026532;28;20033;-17
2024/01/01 00:53:27;;;;;;;5.68;1.50;;;9.00;99.90;;;;;;5051805;28;20056;-17
2024/01/01 00:55:53;;;;;;;7.88;1.75;;;9.10;99.90;;;;;;5055320;28;20604;-18
2024/01/01 00:58:18;;;;;;;5.57;1.30;;;9.10;99.90;;;;;;5052810;28;20047;-17
2024/01/01 01:00:44;;;;;;;5.33;1.60;;;9.00;99.90;;;;;;5050650;28;20068;-20
2024/01/01 01:03:11;;;;;;;5.53;1.50;;;9.10;99.90;;;;;;5008256;28;20295;-18
2024/01/01 01:05:36;;;;;;;8.07;1.67;;;9.10;99.90;;;;;;5038018;28;20356;-17
2024/01/01 01:08:02;;;;;;;9.10;1.47;;;9.10;99.90;;;;;;5053127;28;20139;-18
2024/01/01 01:10:28;;;;;;;4.93;1.40;;;9.10;99.90;;;;;;5053481;28;20274;-19
2024/01/01 01:12:54;;;;;;;4.82;1.25;;;9.10;99.90;;;;;;5048242;28;20243;-17
2024/01/01 01:15:21;;;;;;;4.00;1.27;;;9.10;99.90;;;;;;5051641;28;20278;-18
2024/01/01 01:17:47;;;;;;;6.72;1.52;;;9.10;99.90;;;;;;5052228;28;20505;-19
2024/01/01 01:20:13;;;;;;;6.10;1.53;;;9.00;99.90;;;;;;5051103;28;20040;-19
2024/01/01 01:22:38;;;;;;;8.27;1.30;;;9.10;99.90;;;;;;5053258;28;20090;-19
2024/01/01 01:25:05;;;;;;;4.33;1.10;;;9.20;99.90;;;;;;5034325;28;20119;-18
2024/01/01 01:27:31;;;;;;;7.75;1.58;;;9.10;99.90;;;;;;5048913;28;20406;-21
2024/01/01 01:29:57;;;;;;;7.25;1.45;;;9.10;99.90;;;;;;5038095;28;20053;-19
2024/01/01 01:32:22;;;;;;;5.23;1.00;;;9.10;99.90;;;;;;5055955;28;20438;-19
2024/01/01 01:34:48;;;;;;;6.22;1.17;;;9.10;99.90;;;;;;5051359;28;20034;-15
2024/01/01 01:37:14;;;;;;;7.67;1.17;;;9.10;99.90;;;;;;5056239;28;20029;-16
2024/01/01 01:39:40;;;;;;;4.70;0.95;;;9.10;99.90;;;;;;5022950;28;20206;-16
2024/01/01 01:42:08;;;;;;;5.30;1.17;;;9.20;99.90;;;;;;5035418;28;20450;-15
2024/01/01 01:44:34;;;;;;;5.13;1.00;;;9.10;99.90;;;;;;5039332;28;20028;-18
2024/01/01 01:47:03;;;;;;;5.68;1.20;;;9.10;99.90;;;;;;5052571;28;20533;-15
2024/01/01 01:49:30;;;;;;;6.63;1.27;;;9.10;99.90;;;;;;5049599;28;20502;-16
2024/01/01 01:51:57;;;;;;;7.68;1.23;;;9.10;99.90;;;;;;5038298;28;20339;-15
2024/01/01 01:54:24;;;;;;;9.55;1.38;;;9.20;99.90;;;;;;5025642;28;20374;-16
2024/01/01 01:56:52;;;;;;;8.02;1.20;;;9.20;99.90;;;;;;5047212;28;20611;-15
2024/01/01 01:59:18;;;;;;;7.45;1.20;;;9.10;99.90;;;;;;5047315;28;20170;-16
2024/01/01 02:01:44;;;;;;;5.53;1.00;;;9.10;99.90;;;;;;5035888;28;20045;-16
2024/01/01 02:04:09;;;;;;;5.30;1.02;;;9.10;99.90;;;;;;5034787;28;20419;-16
2024/01/01 02:06:35;;;;;;;5.85;1.20;;;9.10;99.90;;;;;;5047636;28;20045;-16
2024/01/01 02:09:01;;;;;;;6.63;1.17;;;9.20;99.90;;;;;;5032540;28;20021;-15
2024/01/01 02:11:27;;;;;;;6.75;1.33;;;9.10;99.90;;;;;;5051840;28;20020;-15
2024/01/01 02:13:52;;;;;;;7.87;1.30;;;8.90;99.90;;;;;;5038260;28;20100;-17
2024/01/01 02:16:19;;;;;;;7.03;1.55;;;9.10;99.90;;;;;;5049266;28;20025;-16
2024/01/01 02:18:45;;;;;;;7.03;1.30;;;9.10;99.90;;;;;;5032953;28;20036;-15
2024/01/01 02:21:11;;;;;;;5.63;1.10;;;9.20;99.90;;;;;;5049524;28;20028;-15
2024/01/01 02:23:37;;;;;;;7.60;1.10;;;9.20;99.90;;;;;;5048082;28;20108;-15
2024/01/01 02:26:03;;;;;;;7.78;1.30;;;9.20;99.90;;;;;;5047434;28;20060;-16
2024/01/01 02:28:28;;;;;;;6.90;1.20;;;9.20;99.90;;;;;;5045964;28;20127;-16
2024/01/01 02:30:54;;;;;;;6.57;1.27;;;9.20;99.90;;;;;;5046709;28;20021;-16
2024/01/01 02:33:20;;;;;;;9.65;1.35;;;9.20;99.90;;;;;;5051010;28;20317;-16
2024/01/01 02:35:45;;;;;;;6.73;1.23;;;9.20;99.90;;;;;;5034613;28;20059;-16
2024/01/01 02:38:11;;;;;;;6.95;1.33;;;9.20;99.90;;;;;;5047063;28;20025;-15
2024/01/01 02:40:37;;;;;;;5.90;1.07;;;9.20;99.90;;;;;;5048030;28;20177;-16
2024/01/01 02:43:03;;;;;;;3.65;0.80;;;9.20;99.90;;;;;;5046104;28;20407;-16
2024/01/01 02:45:32;;;;;;;5.95;1.30;;;9.20;99.90;;;;;;5046516;28;20516;-19
2024/01/01 02:47:58;;;;;;;5.05;1.35;;;9.20;99.90;;;;;;5051038;28;20025;-19
2024/01/01 02:50:25;;;;;;;6.53;1.20;;;9.20;99.90;;;;;;5022237;28;20028;-17
2024/01/01 02:52:51;;;;;;;9.15;1.27;;;9.20;99.90;;;;;;5033059;28;20132;-21
2024/01/01 02:55:18;;;;;;;6.68;1.17;;;9.20;99.90;;;;;;5049088;28;20415;-20
2024/01/01 02:57:44;;;;;;;6.43;1.15;;;9.20;99.90;;;;;;5042702;28;20087;-18
2024/01/01 03:00:10;;;;;;;8.70;1.93;;;9.20;99.90;;;;;;5017938;28;20680;-20
2024/01/01 03:02:38;;;;;;;4.30;1.10;;;9.20;99.90;;;;;;5038419;28;20283;-19
2024/01/01 03:05:06;;;;;;;5.55;1.10;;;9.20;99.90;;;;;;5032566;28;20059;-18
2024/01/01 03:07:32;;;;;;;4.40;1.00;;;9.20;99.90;;;;;;5031437;28;20033;-19
2024/01/01 03:09:58;;;;;;;4.55;1.00;;;9.20;99.90;;;;;;5053734;28;20037;-19
2024/01/01 03:12:24;;;;;;;3.73;1.07;;;9.20;99.90;;;;;;5037708;28;20020;-20
2024/01/01 03:14:50;;;;;;;3.80;0.98;;;9.20;99.90;;;;;;5056321;28;20017;-18
2024/01/01 03:17:15;;;;;;;5.90;1.17;;;9.20;99.90;;;;;;5056849;28;20053;-17
2024/01/01 03:19:41;;;;;;;5.60;1.00;;;9.20;99.90;;;;;;5055389;28;20148;-20
2024/01/01 03:22:07;;;;;;;4.83;1.10;;;9.20;99.90;;;;;;5054278;28;20029;-18
2024/01/01 03:24:32;;;;;;;2.85;0.80;;;9.20;99.90;;;;;;5053573;28;20021;-18
2024/01/01 03:26:58;;;;;;;3.57;0.90;;;8.30;99.90;;;;;;5054559;28;20032;-18
2024/01/01 03:29:24;;;;;;;4.63;0.93;;;9.20;99.90;;;;;;5053876;28;20021;-17
2024/01/01 03:31:50;;;;;;;5.53;0.90;;;9.20;99.90;;;;;;5053729;28;20483;-18
2024/01/01 03:34:16;;;;;;;4.07;0.98;;;9.20;99.90;;;;;;5044518;28;20484;-18
2024/01/01 03:36:42;;;;;;;5.07;0.90;;;9.20;99.90;;;;;;5025545;28;20032;-17
2024/01/01 03:39:08;;;;;;;6.25;0.88;;;9.20;99.90;;;;;;5056597;28;20028;-20
2024/01/01 03:41:33;;;;;;;3.13;0.77;;;9.10;99.90;;;;;;5055548;28;20028;-17
2024/01/01 03:43:59;;;;;;;3.80;0.93;;;9.10;99.90;;;;;;5020429;28;20146;-20
2024/01/01 03:46:25;;;;;;;3.00;0.63;;;9.20;99.90;;;;;;5051006;28;20418;-19
2024/01/01 03:48:51;;;;;;;4.17;1.00;;;9.10;99.90;;;;;;5043605;28;20020;-20
2024/01/01 03:51:17;;;;;;;6.13;1.00;;;9.10;99.90;;;;;;5040211;28;20041;-19
2024/01/01 03:53:42;;;;;;;7.70;1.05;;;9.10;99.90;;;;;;5004022;28;20037;-18
2024/01/01 03:56:08;;;;;;;6.37;1.30;;;9.00;99.90;;;;;;5044157;28;20041;-18
2024/01/01 03:58:33;;;;;;;7.27;1.00;;;9.00;99.90;;;;;;5054918;28;20036;-18
2024/01/01 04:00:59;;;;;;;4.87;1.30;;;9.00;99.90;;;;;;5055045;28;20385;-20
2024/01/01 04:03:25;;;;;;;3.97;0.80;;;9.00;99.90;;;;;;5055453;28;20107;-22
2024/01/01 04:05:50;;;;;;;4.45;0.90;;;9.00;99.90;;;;;;5050553;28;20028;-19
2024/01/01 04:08:16;;;;;;;5.17;0.90;;;8.90;99.90;;;;;;5054060;28;20020;-18
2024/01/01 04:10:42;;;;;;;4.95;1.20;;;8.90;99.90;;;;;;5054306;28;20021;-18
2024/01/01 04:13:07;;;;;;;4.37;0.90;;;8.90;99.90;;;;;;5037933;28;20036;-18
2024/01/01 04:15:33;;;;;;;4.90;1.05;;;8.90;99.90;;;;;;5053219;28;20441;-17
2024/01/01 04:18:02;;;;;;;4.20;0.80;;;8.90;99.90;;;;;;5052961;28;20071;-20
2024/01/01 04:20:28;;;;;;;4.35;0.88;;;8.90;99.90;;;;;;5020282;28;20120;-19
2024/01/01 04:22:53;;;;;;;5.20;1.23;;;8.90;99.90;;;;;;5055463;28;20029;-21
2024/01/01 04:25:19;;;;;;;2.83;0.80;;;8.90;99.90;;;;;;5054861;28;20131;-19
2024/01/01 04:27:45;;;;;;;6.93;1.00;;;8.10;99.90;;;;;;5052984;28;20501;-21
2024/01/01 04:30:11;;;;;;;4.80;0.98;;;8.90;99.90;;;;;;5035668;28;20025;-19
2024/01/01 04:32:37;;;;;;;4.32;1.00;;;8.90;99.90;;;;;;5026937;28;20021;-19
2024/01/01 04:35:03;;;;;;;5.13;1.10;;;8.90;99.90;;;;;;5056185;28;20577;-18
2024/01/01 04:37:29;;;;;;;4.40;1.15;;;8.00;99.90;;;;;;5054665;28;20348;-18
2024/01/01 04:39:55;;;;;;;6.28;1.48;;;7.80;99.90;;;;;;5027144;28;20032;-17
2024/01/01 04:42:21;;;;;;;4.57;1.00;;;8.90;99.90;;;;;;5047085;28;20033;-19
2024/01/01 04:44:46;;;;;;;5.93;0.95;;;8.80;99.90;;;;;;5031374;28;20025;-17
2024/01/01 04:47:12;;;;;;;5.83;1.00;;;8.80;99.90;;;;;;5052386;28;20028;-19
2024/01/01 04:49:38;;;;;;;7.30;1.10;;;8.80;99.90;;;;;;5050849;28;20032;-18
2024/01/01 04:52:04;;;;;;;8.53;1.33;;;8.80;99.90;;;;;;5022265;28;20051;-18
2024/01/01 04:54:29;;;;;;;6.18;1.05;;;8.80;99.90;;;;;;5053038;28;20021;-20
2024/01/01 04:56:55;;;;;;;6.33;1.07;;;8.70;99.90;;;;;;5053761;28;20325;-17
2024/01/01 04:59:21;;;;;;;5.03;0.80;;;8.80;99.90;;;;;;5054586;28;20017;-18
2024/01/01 05:01:47;;;;;;;4.30;0.77;;;8.70;99.90;;;;;;5053921;28;20546;-19
2024/01/01 05:04:12;;;;;;;4.93;1.02;;;8.70;99.90;;;;;;5054217;28;20060;-16
2024/01/01 05:06:38;;;;;;;4.07;0.93;;;8.70;99.90;;;;;;5032154;28;20040;-16
2024/01/01 05:09:04;;;;;;;4.87;1.00;;;8.70;99.90;;;;;;5037814;28;20107;-16
2024/01/01 05:11:30;;;;;;;4.50;1.17;;;8.70;99.90;;;;;;5056253;28;20514;-17
2024/01/01 05:13:56;;;;;;;4.47;0.80;;;8.70;99.90;;;;;;5041164;28;20122;-18
2024/01/01 05:16:23;;;;;;;4.05;1.00;;;8.70;99.90;;;;;;5052101;28;20548;-16
2024/01/01 05:18:48;;;;;;;2.85;0.73;;;8.70;99.90;;;;;;5049272;28;20036;-16
2024/01/01 05:21:14;;;;;;;4.73;0.80;;;8.70;99.90;;;;;;5033081;28;20078;-17
2024/01/01 05:23:40;;;;;;;4.83;0.90;;;8.70;99.90;;;;;;5050812;28;20119;-16
2024/01/01 05:26:07;;;;;;;5.05;0.90;;;8.70;99.90;;;;;;5037928;28;21310;-17
2024/01/01 05:28:32;;;;;;;5.63;1.00;;;8.70;99.90;;;;;;5050759;28;20036;-16
2024/01/01 05:30:58;;;;;;;3.47;0.90;;;8.70;99.90;;;;;;5033937;28;20680;-17
2024/01/01 05:33:24;;;;;;;5.70;0.98;;;8.70;99.90;;;;;;5049310;28;20031;-16
2024/01/01 05:35:49;;;;;;;3.57;0.80;;;8.70;99.90;;;;;;5017214;28;20035;-16
2024/01/01 05:38:17;;;;;;;3.40;0.80;;;8.70;99.90;;;;;;5053893;28;20036;-17
2024/01/01 05:40:44;;;;;;;5.68;0.80;;;8.70;99.90;;;;;;5046033;28;20013;-16
2024/01/01 05:43:10;;;;;;;4.30;0.80;;;8.70;99.90;;;;;;5051489;28;20040;-18
2024/01/01 05:45:36;;;;;;;5.20;1.20;;;8.60;99.90;;;;;;5048151;28;20021;-16
2024/01/01 05:48:01;;;;;;;4.63;0.87;;;8.70;99.90;;;;;;5022256;28;20044;-16
2024/01/01 05:50:28;;;;;;;4.50;1.17;;;8.70;99.90;;;;;;5050669;28;20055;-16
2024/01/01 05:52:54;;;;;;;6.05;1.10;;;8.70;99.90;;;;;;5052157;28;20009;-17
2024/01/01 05:55:19;;;;;;;3.43;0.90;;;8.80;99.90;;;;;;5049963;28;20047;-17
2024/01/01 05:57:45;;;;;;;3.78;1.10;;;8.80;99.90;;;;;;5053401;28;20070;-17
2024/01/01 06:00:12;;;;;;;5.20;1.10;;;8.80;99.90;;;;;;5047222;28;20068;-16
2024/01/01 06:02:38;;;;;;;3.72;1.00;;;8.90;99.90;;;;;;5048396;28;20115;-16
2024/01/01 06:05:04;;;;;;;3.95;0.90;;;8.90;99.90;;;;;;5035062;28;20438;-17
2024/01/01 06:07:30;;;;;;;4.40;0.85;;;8.90;99.90;;;;;;5053715;28;20488;-17
2024/01/01 06:09:57;;;;;;;3.30;0.87;;;8.90;99.90;;;;;;5048482;28;20036;-16
2024/01/01 06:12:23;;;;;;;5.45;1.27;;;9.00;99.90;;;;;;5051171;28;20488;-16
2024/01/01 06:14:50;;;;;;;4.32;0.80;;;8.90;99.90;;;;;;5026509;28;20025;-16
2024/01/01 06:17:16;;;;;;;2.15;0.77;;;8.90;99.90;;;;;;5051889;28;20028;-17
2024/01/01 06:19:42;;;;;;;3.90;0.93;;;8.90;99.90;;;;;;5053497;28;20070;-17
2024/01/01 06:22:08;;;;;;;3.97;1.00;;;8.90;99.90;;;;;;5052682;28;20025;-16
2024/01/01 06:24:33;;;;;;;3.25;0.80;;;8.90;99.90;;;;;;5048782;28;20035;-16
2024/01/01 06:26:59;;;;;;;6.90;1.10;;;8.90;99.90;;;;;;5049695;28;20060;-16
2024/01/01 06:29:27;;;;;;;7.35;1.13;;;8.90;99.90;;;;;;5049764;28;20028;-16
2024/01/01 06:31:53;;;;;;;2.63;0.83;;;8.90;99.90;;;;;;5051468;28;20471;-15
2024/01/01 06:34:19;;;;;;;4.25;0.90;;;8.90;99.90;;;;;;5051397;28;20048;-16
2024/01/01 06:36:45;;;;;;;4.45;0.80;;;8.80;99.90;;;;;;5015007;28;20415;-15
2024/01/01 06:39:11;;;;;;;3.97;0.98;;;8.80;99.90;;;;;;5053373;28;20262;-16
2024/01/01 06:41:37;;;;;;;3.37;0.90;;;8.80;99.90;;;;;;5050353;28;20029;-16
2024/01/01 06:44:03;;;;;;;4.13;1.00;;;8.80;99.90;;;;;;5049983;28;20028;-15
2024/01/01 06:46:29;;;;;;;3.80;1.23;;;8.30;99.90;;;;;;5050179;28;20040;-16
2024/01/01 06:48:54;;;;;;;2.90;0.80;;;8.80;99.90;;;;;;5032518;28;20101;-16
2024/01/01 06:51:20;;;;;;;4.78;0.80;;;8.80;99.90;;;;;;5017305;28;20103;-16
2024/01/01 06:53:46;;;;;;;5.17;0.83;;;8.80;99.90;;;;;;5032569;28;20517;-16
2024/01/01 06:56:12;;;;;;;6.00;1.15;;;8.80;99.90;;;;;;5043470;28;20040;-16
2024/01/01 06:58:37;;;;;;;3.10;1.00;;;8.80;99.90;;;;;;5047223;28;20028;-15
2024/01/01 07:01:03;;;;;;;3.53;0.85;;;8.90;99.90;;;;;;5040986;28;20037;-16
2024/01/01 07:03:29;;;;;;;4.07;0.87;;;8.90;99.90;;;;;;5016760;28;20612;-15
2024/01/01 07:05:55;;;;;;;2.67;0.85;;;8.90;99.90;;;;;;5030314;28;20491;-15
2024/01/01 07:08:23;;;;;;;6.10;1.10;;;8.90;99.90;;;;;;5028563;28;20021;-16
2024/01/01 07:10:49;;;;;;;4.03;0.98;;;8.90;99.90;;;;;;5030676;28;20034;-16
2024/01/01 07:13:14;;;;;;;1.90;0.77;;;8.90;99.90;;;;;;5028722;28;20040;-16
2024/01/01 07:15:40;;;;;;;4.30;1.20;;;8.90;99.90;;;;;;5031035;28;20087;-16
2024/01/01 07:18:07;;;;;;;4.40;0.70;;;7.60;99.90;;;;;;5030823;28;20520;-16
2024/01/01 07:20:33;;;;;;;3.15;1.00;;;8.90;99.90;;;;;;5030243;28;20025;-15
2024/01/01 07:22:58;;;;;;;3.97;0.85;;;8.90;99.90;;;;;;5009747;28;20043;-16
2024/01/01 07:25:24;;;;;;;6.27;1.00;;;8.90;99.90;;;;;;5032253;28;20475;-18
2024/01/01 07:27:50;;;;;;;1.90;0.80;;;8.90;99.90;;;;;;5024073;28;20306;-17
2024/01/01 07:30:16;;;;;;;2.55;0.80;;;8.90;99.90;;;;;;5010595;28;20479;-18
2024/01/01 07:32:42;;;;;;;5.23;1.00;;;8.90;99.90;;;;;;5028253;28;20021;-18
2024/01/01 07:35:08;;;;;;;4.72;1.13;;;8.90;99.90;;;;;;5031282;28;20422;-20
2024/01/01 07:37:35;;;;;;;4.78;1.05;;;8.90;99.90;;;;;;5023806;28;20123;-19
2024/01/01 07:40:01;;;;;;;4.07;0.80;;;8.90;99.90;;;;;;5027766;28;20472;-19
2024/01/01 07:42:27;;;;;;;5.60;1.10;;;8.90;99.90;;;;;;5015363;28;20033;-18
2024/01/01 07:44:53;;;;;;;4.07;1.02;;;8.90;99.90;;;;;;5028158;28;20060;-18
2024/01/01 07:47:19;;;;;;;4.13;0.80;;;8.90;99.90;;;;;;5007707;28;20075;-18
2024/01/01 07:49:45;;;;;;;3.13;0.90;;;9.00;99.90;;;;;;5024427;28;20576;-18
2024/01/01 07:52:12;;;;;;;3.03;1.00;;;8.90;99.90;;;;;;5029226;28;20508;-18
2024/01/01 07:54:39;;;;;;;2.08;0.80;;;9.00;99.90;;;;;;5027703;28;20025;-19
2024/01/01 07:57:06;;;;;;;6.57;0.90;;;9.00;99.90;;;;;;5032020;28;20025;-18
2024/01/01 07:59:33;;;;;;;5.43;1.00;;;9.00;99.90;;;;;;5031260;28;20022;-18
2024/01/01 08:01:59;;;;;;;5.55;1.35;;;9.00;99.90;;;;;;5048630;28;20143;-19
2024/01/01 08:04:26;;;;;;;5.05;1.15;;;8.90;99.90;;;;;;5046722;28;20700;-20
2024/01/01 08:06:52;;;;;;;3.63;0.90;;;8.90;99.90;;;;;;5035315;28;20257;-18
2024/01/01 08:09:17;;;;;;;4.67;0.83;;;9.00;99.90;;;;;;5052735;28;20025;-18
2024/01/01 08:11:43;;;;;;;5.47;1.20;;;8.90;99.90;;;;;;5052754;28;20453;-19
2024/01/01 08:14:09;;;;;;;6.47;1.10;;;8.90;99.90;;;;;;5034066;28;20408;-18
2024/01/01 08:16:34;;;;;;;4.88;0.95;;;8.80;99.90;;;;;;5047171;28;20243;-18
2024/01/01 08:19:00;;;;;;;5.17;1.10;;;8.90;99.90;;;;;;5051757;28;20302;-19
2024/01/01 08:21:26;;;;;;;2.25;0.80;;;8.90;99.90;;;;;;5051410;28;20025;-18
2024/01/01 08:23:53;;;;;;;5.13;0.93;;;8.90;99.90;;;;;;5032788;28;20131;-18
2024/01/01 08:26:19;;;;;;;4.93;1.00;;;8.90;99.90;;;;;;5058341;28;20351;-18
2024/01/01 08:28:51;;;;;;;8.35;1.20;;;8.90;99.90;;;;;;5019899;28;20029;-17
2024/01/01 08:31:20;;;;;;;4.20;0.80;;;8.90;99.90;;;;;;5055226;28;20093;-20
2024/01/01 08:33:46;;;;;;;3.67;0.87;;;8.90;99.90;;;;;;5009287;28;20675;-18
2024/01/01 08:36:12;;;;;;;3.60;0.80;;;8.90;99.90;;;;;;5053288;28;20072;-19
2024/01/01 08:38:38;;;;;;;5.88;0.80;;;8.90;99.90;;;;;;5039922;28;20051;-18
2024/01/01 08:41:04;;;;;;;4.20;0.80;;;9.00;99.90;;;;;;5037743;28;20249;-20
2024/01/01 08:43:30;;;;;;;2.97;1.37;;;9.00;99.90;;;;;;5050665;28;20044;-18
2024/01/01 08:45:55;;;;;;;4.80;0.98;;;9.00;99.90;;;;;;5038727;28;20333;-18
2024/01/01 08:48:21;;;;;;;3.13;0.70;;;8.90;99.90;;;;;;5052681;28;20028;-18
2024/01/01 08:50:47;;;;;;;2.30;0.70;;;9.00;99.90;;;;;;5051508;28;20558;-19
2024/01/01 08:53:12;;;;;;;3.00;1.00;;;9.00;99.90;;;;;;5051932;28;20078;-18
2024/01/01 08:55:38;;;;;;;6.25;1.02;;;9.00;99.90;;;;;;5050033;28;20025;-18
2024/01/01 08:58:05;;;;;;;2.43;0.83;;;9.00;99.90;;;;;;5050101;28;20040;-20
2024/01/01 09:00:31;;;;;;;4.03;1.00;;;9.10;99.90;;;;;;5033904;28;20566;-17
2024/01/01 09:02:56;;;;;;;7.13;1.33;;;9.10;99.90;;;;;;5034069;28;20074;-19
2024/01/01 09:05:22;;;;;;;4.60;0.85;;;9.10;99.90;;;;;;5051132;28;20028;-18
2024/01/01 09:07:48;;;;;;;3.33;0.70;;;8.10;99.90;;;;;;5050271;28;20037;-17
2024/01/01 09:10:15;;;;;;;3.30;0.90;;;9.20;99.90;;;;;;5050729;28;20110;-19
2024/01/01 09:12:41;;;;;;;5.90;1.05;;;9.20;99.90;;;;;;5034247;28;20070;-18
2024/01/01 09:15:07;;;;;;;2.97;0.80;;;9.20;99.90;;;;;;5038166;28;20016;-20
2024/01/01 09:17:34;;;;;;;6.38;1.10;;;9.30;99.90;;;;;;5052560;28;20410;-18
2024/01/01 09:20:00;;;;;;;6.53;1.40;;;9.30;99.90;;;;;;5055219;28;20525;-18
2024/01/01 09:22:25;;;;;;;4.23;1.00;;;9.30;99.90;;;;;;5034463;28;20113;-18
2024/01/01 09:24:51;;;;;;;5.13;0.90;;;9.40;99.90;;;;;;5035087;28;20279;-19
2024/01/01 09:27:17;;;;;;;2.90;0.73;;;9.40;99.90;;;;;;5051279;28;20079;-18
2024/01/01 09:29:42;;;;;;;4.95;1.00;;;9.40;99.90;;;;;;5054589;28;20013;-21
2024/01/01 09:32:08;;;;;;;5.87;1.50;;;9.40;99.90;;;;;;5051485;28;20055;-20
2024/01/01 09:34:34;;;;;;;4.88;0.98;;;9.50;99.90;;;;;;5047445;28;20494;-18
2024/01/01 09:37:00;;;;;;;2.00;0.80;;;9.50;99.90;;;;;;5049286;28;20029;-20
2024/01/01 09:39:25;;;;;;;4.47;1.00;;;9.50;99.90;;;;;;5054583;28;20035;-21
2024/01/01 09:41:52;;;;;;;2.53;0.77;;;9.60;99.90;;;;;;5051749;28;20146;-21
2024/01/01 09:44:17;;;;;;;5.33;1.10;;;9.60;99.90;;;;;;5013397;28;20037;-19
2024/01/01 09:46:45;;;;;;;5.40;0.85;;;9.60;99.90;;;;;;5043796;28;20782;-18
2024/01/01 09:49:11;;;;;;;5.18;1.00;;;9.60;99.90;;;;;;5032746;28;20480;-21
2024/01/01 09:51:40;;;;;;;2.80;0.80;;;9.70;99.90;;;;;;5051143;28;20039;-18
2024/01/01 09:54:07;;;;;;;3.40;0.80;;;9.70;99.90;;;;;;5033064;28;20437;-20
2024/01/01 09:56:32;;;;;;;3.55;0.90;;;9.80;99.90;;;;;;5039525;28;20054;-18
2024/01/01 09:58:58;;;;;;;1.83;0.70;;;9.80;99.90;;;;;;5052433;28;20126;-19
2024/01/01 10:01:24;;;;;;;4.30;0.98;;;9.80;99.90;;;;;;5049231;28;20033;-19
2024/01/01 10:04:07;;;;;;;7.53;1.30;;;9.90;99.90;;;;;;5045584;22;20151;-18
2024/01/01 10:06:34;;;;;;;6.18;1.27;;;10.10;99.90;;;;;;5056212;28;20418;-18
2024/01/01 10:09:10;;;;;;;5.20;1.30;;;10.20;99.90;;;;;;5057780;28;20077;-18
2024/01/01 10:11:41;;;;;;;5.35;1.38;;;10.40;99.90;;;;;;5039372;28;20040;-18
2024/01/01 10:14:07;;;;;;;5.32;1.15;;;10.50;99.90;;;;;;5038491;28;20526;-20
2024/01/01 10:16:33;;;;;;;6.00;2.30;;;10.50;99.90;;;;;;5057137;28;20109;-17
2024/01/01 10:19:01;;;;;;;8.98;1.88;;;10.60;99.90;;;;;;5059024;28;20028;-20
2024/01/01 10:21:27;;;;;;;6.93;1.50;;;10.70;99.90;;;;;;5056166;28;20020;-18
2024/01/01 10:23:53;;;;;;;5.55;1.10;;;10.80;99.90;;;;;;5056074;28;20028;-17
2024/01/01 10:26:19;;;;;;;5.53;1.30;;;10.80;99.90;;;;;;5040175;28;20111;-17
2024/01/01 10:28:44;;;;;;;5.28;1.10;;;10.90;99.90;;;;;;5058525;28;20035;-18
2024/01/01 10:31:12;;;;;;;4.07;1.03;;;10.90;99.90;;;;;;5059840;28;20051;-19
2024/01/01 10:33:40;;;;;;;5.03;1.60;;;10.90;99.90;;;;;;5059336;28;20464;-18
2024/01/01 10:36:06;;;;;;;6.30;1.63;;;10.80;99.90;;;;;;5017820;28;20644;-18
2024/01/01 10:38:34;;;;;;;5.82;1.50;;;10.80;99.90;;;;;;5055880;28;20107;-18
2024/01/01 10:41:02;;;;;;;5.03;1.40;;;10.80;99.90;;;;;;5059985;28;20272;-17
2024/01/01 10:43:28;;;;;;;7.50;1.80;;;10.90;99.90;;;;;;5054916;28;20461;-18
2024/01/01 10:46:06;;;;;;;4.22;1.30;;;10.90;99.90;;;;;;5056838;28;20025;-19
2024/01/01 10:48:32;;;;;;;6.05;1.40;;;11.00;99.90;;;;;;5056877;28;20021;-18
2024/01/01 10:51:27;;;;;;;6.82;1.50;;;11.10;99.90;;;;;;5036439;28;20541;-19
2024/01/01 10:54:34;;;;;;;3.63;1.30;;;11.20;99.90;;;;;;5007938;28;20393;-18
2024/01/01 10:57:17;;;;;;;6.75;1.98;;;11.30;99.90;;;;;;5053698;28;20040;-20
2024/01/01 10:59:55;;;;;;;4.47;1.20;;;11.60;99.90;;;;;;5232401;23;20017;-22
2024/01/01 11:02:22;;;;;;;5.78;1.50;;;11.30;99.90;;;;;;5197849;23;20642;-22
2024/01/01 11:05:05;;;;;;;6.35;1.50;;;11.30;99.90;;;;;;5055537;28;21010;-20
2024/01/01 11:07:52;;;;;;;5.47;1.40;;;11.30;99.90;;;;;;5039467;28;20049;-20
2024/01/01 11:13:26;;;;;;;12.82;2.47;;;11.10;99.90;;;;;;5385766;22;20864;-85
2024/01/01 11:15:58;;;;;;;8.75;2.03;;;11.30;99.90;;;;;;5025752;28;20029;-85
2024/01/01 11:18:32;;;;;;;6.60;1.60;;;11.30;99.90;;;;;;5020427;28;20029;-84
2024/01/01 11:21:00;;;;;;;6.80;1.80;;;11.40;99.90;;;;;;5002660;28;20025;-84
2024/01/01 11:23:47;;;;;;;7.03;1.50;;;11.40;99.90;;;;;;5020397;28;20582;-88
2024/01/01 11:26:24;;;;;;;5.43;1.48;;;11.50;99.90;;;;;;5029115;28;20042;-87
2024/01/01 11:28:57;;;;;;;4.53;1.60;;;11.60;99.90;;;;;;5012094;28;20039;-86
2024/01/01 11:31:25;;;;;;;8.52;1.85;;;11.60;99.90;;;;;;5013339;28;20087;-87
2024/01/01 11:34:08;;;;;;;6.97;1.60;;;11.70;99.90;;;;;;5017734;28;20079;-86
2024/01/01 11:36:35;;;;;;;10.35;1.88;;;11.60;99.90;;;;;;5031263;28;20029;-87
2024/01/01 11:39:02;;;;;;;5.43;1.30;;;11.70;99.90;;;;;;5022900;28;20052;-86
2024/01/01 11:41:30;;;;;;;2.65;1.05;;;11.60;99.90;;;;;;5027993;28;20051;-85
2024/01/01 11:44:14;;;;;;;7.43;2.03;;;11.70;99.90;;;;;;5035331;28;20422;-86
2024/01/01 11:46:41;;;;;;;5.47;2.00;;;11.70;99.90;;;;;;5001277;28;20041;-87
2024/01/01 11:49:08;;;;;;;5.72;1.52;;;11.70;99.90;;;;;;5035094;28;20062;-86
2024/01/01 11:52:00;;;;;;;9.60;2.17;;;11.70;99.90;;;;;;5020037;28;20028;-86
2024/01/01 11:54:26;;;;;;;8.23;1.65;;;11.70;99.90;;;;;;5003217;28;20115;-89
2024/01/01 11:56:59;;;;;;;8.82;1.90;;;11.70;99.90;;;;;;5025374;28;20068;-87
2024/01/01 11:59:27;;;;;;;8.33;2.10;;;11.70;99.90;;;;;;5023613;28;20109;-88
2024/01/01 12:01:53;;;;;;;7.50;1.90;;;11.60;99.90;;;;;;5020149;28;20505;-88
2024/01/01 12:04:20;;;;;;;6.15;1.55;;;11.70;99.90;;;;;;5020468;28;20403;-87
2024/01/01 12:06:52;;;;;;;11.88;2.08;;;11.70;99.90;;;;;;5035409;28;20036;-86
2024/01/01 12:12:12;;;;;;;6.33;1.37;;;11.60;99.90;;;;;;5014944;28;20482;-22
2024/01/01 12:14:39;;;;;;;5.18;1.60;;;11.70;99.90;;;;;;5214089;22;20061;-23
2024/01/01 12:17:06;;;;;;;8.65;1.27;;;11.70;99.90;;;;;;5016195;28;20422;-23
2024/01/01 12:19:31;;;;;;;6.50;1.50;;;11.60;99.90;;;;;;5037337;28;20037;-23
2024/01/01 12:21:57;;;;;;;4.87;1.50;;;11.60;99.90;;;;;;5036552;28;20063;-23
2024/01/01 12:24:23;;;;;;;7.30;1.40;;;11.60;99.90;;;;;;5025142;28;20047;-24
2024/01/01 12:26:52;;;;;;;7.57;1.60;;;11.50;99.90;;;;;;5038895;28;20060;-23
2024/01/01 12:29:20;;;;;;;3.72;1.25;;;11.50;99.90;;;;;;5038568;28;20295;-23
2024/01/01 12:31:50;;;;;;;4.57;1.38;;;11.40;99.90;;;;;;5018375;28;20552;-23
2024/01/01 12:34:18;;;;;;;6.82;1.40;;;11.40;99.90;;;;;;5035370;28;20029;-23
2024/01/01 12:36:46;;;;;;;7.30;1.40;;;11.40;99.90;;;;;;5035935;28;20479;-23
2024/01/01 12:39:20;;;;;;;5.67;1.17;;;11.30;99.90;;;;;;5035115;28;20505;-23
2024/01/01 12:41:45;;;;;;;5.57;1.30;;;11.30;99.90;;;;;;5036791;28;20101;-23
2024/01/01 12:44:11;;;;;;;7.18;1.60;;;11.30;99.90;;;;;;5037148;28;20021;-23
2024/01/01 12:46:37;;;;;;;4.13;1.30;;;11.20;99.90;;;;;;5017107;28;20071;-23
2024/01/01 12:49:04;;;;;;;6.73;1.47;;;11.20;99.90;;;;;;5021819;28;20357;-23
2024/01/01 12:51:31;;;;;;;5.82;1.13;;;11.50;99.90;;;;;;5021992;28;20107;-23
2024/01/01 12:53:57;;;;;;;4.85;1.63;;;11.10;99.90;;;;;;5036731;28;20461;-23
2024/01/01 12:56:27;;;;;;;5.10;1.10;;;11.10;99.90;;;;;;5036661;28;20029;-23
2024/01/01 12:58:53;;;;;;;6.07;1.23;;;11.00;99.90;;;;;;5036352;28;20026;-23
2024/01/01 13:01:19;;;;;;;4.88;1.63;;;11.00;99.90;;;;;;5020042;28;20697;-23